Time,TemperatureF,DewpointF,PressureIn,WindDirection,WindDirectionDegrees,WindSpeedMPH,WindSpeedGustMPH,Humidity,HourlyPrecipIn,Conditions,Clouds,dailyrainin,SoftwareType,DateUTC
2013-04-29 08:52:00,51.0,50.0,30.05,SSE,166,0.0,0.0,98,-99.99,,,-99.99,,2013-04-29 12:52:00,
2013-04-29 09:01:00,51.0,50.0,30.05,SSE,166,0.0,0.0,98,-99.99,,,-99.99,,2013-04-29 13:01:00,
2013-04-29 09:11:00,51.0,50.0,30.05,SSE,166,0.0,0.0,98,-99.99,,,-99.99,,2013-04-29 13:11:00,
2013-04-29 09:21:00,52.0,51.0,30.05,SSE,166,0.0,0.0,98,-99.99,,,-99.99,,2013-04-29 13:21:00,
2013-04-29 09:32:00,52.0,51.0,30.05,SSE,167,0.0,0.0,98,-99.99,,,-99.99,,2013-04-29 13:32:00,
2013-04-29 09:42:00,52.0,51.0,30.05,SSE,167,0.0,0.0,98,-99.99,,,-99.99,,2013-04-29 13:42:00,
2013-04-29 09:52:00,53.0,52.0,30.06,SSE,166,0.0,0.0,97,-99.99,,,-99.99,,2013-04-29 13:52:00,
2013-04-29 10:02:00,53.0,52.0,30.05,SSE,166,0.0,0.0,96,-99.99,,,-99.99,,2013-04-29 14:02:00,
2013-04-29 10:12:00,53.0,52.0,30.05,SSE,166,0.0,0.0,96,-99.99,,,-99.99,,2013-04-29 14:12:00,
2013-04-29 10:21:00,53.0,52.0,30.05,SSE,166,0.0,0.0,96,-99.99,,,-99.99,,2013-04-29 14:21:00,
2013-04-29 10:32:00,53.0,52.0,30.05,SSE,167,0.0,0.0,95,-99.99,,,-99.99,,2013-04-29 14:32:00,
2013-04-29 10:42:00,53.0,52.0,30.05,SSE,167,0.0,0.0,95,-99.99,,,-99.99,,2013-04-29 14:42:00,
2013-04-29 10:52:00,53.0,52.0,30.05,SSE,168,0.0,0.0,95,-99.99,,,-99.99,,2013-04-29 14:52:00,
2013-04-29 11:01:00,54.0,53.0,30.06,SSE,167,0.0,0.0,95,-99.99,,,-99.99,,2013-04-29 15:01:00,
2013-04-29 11:12:00,54.0,53.0,30.06,SSE,167,0.0,0.0,95,-99.99,,,-99.99,,2013-04-29 15:12:00,
2013-04-29 11:21:00,55.0,54.0,30.05,SSE,160,2.0,0.0,95,-99.99,,,-99.99,,2013-04-29 15:21:00,
2013-04-29 11:33:00,55.0,53.0,30.05,SSE,162,0.0,0.0,93,-99.99,,,-99.99,,2013-04-29 15:33:00,
2013-04-29 11:42:00,55.0,53.0,30.05,SSE,162,0.0,0.0,93,-99.99,,,-99.99,,2013-04-29 15:42:00,
2013-04-29 11:53:00,57.0,54.0,30.04,North,356,0.0,0.0,89,-99.99,,,-99.99,,2013-04-29 15:53:00,
2013-04-29 12:03:00,57.0,54.0,30.04,North,356,0.0,0.0,89,-99.99,,,-99.99,,2013-04-29 16:03:00,
2013-04-29 12:12:00,57.0,54.0,30.04,North,356,0.0,0.0,89,-99.99,,,-99.99,,2013-04-29 16:12:00,
2013-04-29 12:23:00,58.0,54.0,30.04,NNW,332,0.0,0.0,86,-99.99,,,-99.99,,2013-04-29 16:23:00,
2013-04-29 12:33:00,58.0,54.0,30.04,NNW,332,0.0,0.0,86,-99.99,,,-99.99,,2013-04-29 16:33:00,
2013-04-29 12:42:00,58.0,54.0,30.04,NNW,332,0.0,0.0,86,-99.99,,,-99.99,,2013-04-29 16:42:00,
2013-04-29 12:52:00,61.0,56.0,30.03,South,172,0.0,0.0,83,-99.99,,,-99.99,,2013-04-29 16:52:00,
2013-04-29 13:02:00,61.0,56.0,30.03,South,172,0.0,0.0,83,-99.99,,,-99.99,,2013-04-29 17:02:00,
2013-04-29 13:12:00,61.0,56.0,30.03,South,172,0.0,0.0,83,-99.99,,,-99.99,,2013-04-29 17:12:00,
2013-04-29 13:22:00,63.0,57.0,30.01,ESE,113,1.0,0.0,80,-99.99,,,-99.99,,2013-04-29 17:22:00,
2013-04-29 13:32:00,62.0,55.0,30.01,SE,137,0.0,0.0,79,-99.99,,,-99.99,,2013-04-29 17:32:00,
2013-04-29 13:42:00,62.0,55.0,30.01,SE,137,0.0,0.0,79,-99.99,,,-99.99,,2013-04-29 17:42:00,
2013-04-29 13:52:00,65.0,57.0,30.00,South,177,1.0,0.0,76,-99.99,,,-99.99,,2013-04-29 17:52:00,
2013-04-29 14:01:00,66.0,57.0,30.00,NNW,341,0.0,0.0,73,-99.99,,,-99.99,,2013-04-29 18:01:00,
2013-04-29 14:13:00,66.0,57.0,30.00,NNW,341,0.0,0.0,73,-99.99,,,-99.99,,2013-04-29 18:13:00,
2013-04-29 14:22:00,67.0,58.0,29.99,SW,222,0.0,0.0,74,-99.99,,,-99.99,,2013-04-29 18:22:00,
2013-04-29 14:32:00,69.0,59.0,29.98,South,176,1.0,0.0,70,-99.99,,,-99.99,,2013-04-29 18:32:00,
2013-04-29 14:42:00,69.0,59.0,29.98,South,176,1.0,0.0,70,-99.99,,,-99.99,,2013-04-29 18:42:00,
2013-04-29 14:52:00,70.0,59.0,29.98,South,186,1.0,0.0,67,-99.99,,,-99.99,,2013-04-29 18:52:00,
2013-04-29 15:01:00,70.0,59.0,29.98,South,186,1.0,0.0,67,-99.99,,,-99.99,,2013-04-29 19:01:00,
2013-04-29 15:11:00,70.0,59.0,29.98,South,186,1.0,0.0,67,-99.99,,,-99.99,,2013-04-29 19:11:00,
2013-04-29 15:22:00,69.0,58.0,29.97,WNW,291,0.0,0.0,67,-99.99,,,-99.99,,2013-04-29 19:22:00,
2013-04-29 15:32:00,69.0,58.0,29.96,WSW,242,1.0,0.0,69,-99.99,,,-99.99,,2013-04-29 19:32:00,
2013-04-29 15:42:00,69.0,58.0,29.96,WSW,242,1.0,0.0,69,-99.99,,,-99.99,,2013-04-29 19:42:00,
2013-04-29 15:52:00,68.0,57.0,29.96,East,100,0.0,0.0,69,-99.99,,,-99.99,,2013-04-29 19:52:00,
2013-04-29 16:02:00,68.0,58.0,29.96,NNE,32,0.0,0.0,70,-99.99,,,-99.99,,2013-04-29 20:02:00,
2013-04-29 16:12:00,68.0,58.0,29.96,NNE,32,0.0,0.0,70,-99.99,,,-99.99,,2013-04-29 20:12:00,
2013-04-29 16:22:00,66.0,57.0,29.96,SW,226,0.0,0.0,72,-99.99,,,-99.99,,2013-04-29 20:22:00,
2013-04-29 16:32:00,66.0,57.0,29.96,SW,226,0.0,0.0,74,-99.99,,,-99.99,,2013-04-29 20:32:00,
2013-04-29 16:42:00,66.0,57.0,29.96,SW,226,0.0,0.0,74,-99.99,,,-99.99,,2013-04-29 20:42:00,
2013-04-29 16:52:00,65.0,58.0,29.95,WSW,249,0.0,0.0,79,-99.99,,,-99.99,,2013-04-29 20:52:00,
2013-04-29 17:01:00,65.0,58.0,29.95,SW,232,0.0,0.0,78,-99.99,,,-99.99,,2013-04-29 21:01:00,
2013-04-29 17:11:00,65.0,58.0,29.95,SW,232,0.0,0.0,78,-99.99,,,-99.99,,2013-04-29 21:11:00,
2013-04-29 17:22:00,66.0,59.0,29.95,South,191,0.0,0.0,77,-99.99,,,-99.99,,2013-04-29 21:22:00,
2013-04-29 17:33:00,66.0,59.0,29.95,South,191,0.0,0.0,77,-99.99,,,-99.99,,2013-04-29 21:33:00,
2013-04-29 17:43:00,66.0,59.0,29.95,South,191,0.0,0.0,77,-99.99,,,-99.99,,2013-04-29 21:43:00,
2013-04-29 17:53:00,66.0,59.0,29.95,South,191,0.0,0.0,77,-99.99,,,-99.99,,2013-04-29 21:53:00,
2013-04-29 18:02:00,65.0,58.0,29.95,SSW,208,0.0,0.0,78,-99.99,,,-99.99,,2013-04-29 22:02:00,
2013-04-29 18:13:00,65.0,58.0,29.95,SSW,208,0.0,0.0,78,-99.99,,,-99.99,,2013-04-29 22:13:00,
2013-04-29 18:23:00,65.0,58.0,29.95,SSW,208,0.0,0.0,79,-99.99,,,-99.99,,2013-04-29 22:23:00,
2013-04-29 18:32:00,65.0,58.0,29.95,SSW,208,0.0,0.0,79,-99.99,,,-99.99,,2013-04-29 22:32:00,
2013-04-29 18:42:00,65.0,58.0,29.95,SSW,208,0.0,0.0,79,-99.99,,,-99.99,,2013-04-29 22:42:00,
2013-04-29 18:52:00,62.0,58.0,29.96,SSW,193,0.0,0.0,86,-99.99,,,-99.99,,2013-04-29 22:52:00,
2013-04-29 19:02:00,62.0,58.0,29.96,SSW,193,0.0,0.0,86,-99.99,,,-99.99,,2013-04-29 23:02:00,
2013-04-29 19:12:00,62.0,58.0,29.96,SSW,193,0.0,0.0,86,-99.99,,,-99.99,,2013-04-29 23:12:00,
2013-04-29 19:22:00,62.0,58.0,29.96,SSW,193,0.0,0.0,87,-99.99,,,-99.99,,2013-04-29 23:22:00,
2013-04-29 19:32:00,62.0,58.0,29.96,SSW,193,0.0,0.0,87,-99.99,,,-99.99,,2013-04-29 23:32:00,
2013-04-29 19:42:00,62.0,58.0,29.96,SSW,193,0.0,0.0,87,-99.99,,,-99.99,,2013-04-29 23:42:00,
2013-04-29 19:53:00,62.0,58.0,29.96,SSW,193,0.0,0.0,87,-99.99,,,-99.99,,2013-04-29 23:53:00,
2013-04-29 20:01:00,62.0,58.0,29.96,SSW,193,0.0,0.0,87,-99.99,,,-99.99,,2013-04-30 00:01:00,
2013-04-29 20:22:00,61.0,58.0,29.97,SSW,193,0.0,0.0,89,-99.99,,,-99.99,,2013-04-30 00:22:00,
2013-04-29 20:32:00,60.0,57.0,29.98,SSW,193,0.0,0.0,90,-99.99,,,-99.99,,2013-04-30 00:32:00,
2013-04-29 20:42:00,60.0,57.0,29.98,SSW,193,0.0,0.0,90,-99.99,,,-99.99,,2013-04-30 00:42:00,
2013-04-29 20:51:00,60.0,57.0,29.99,SSW,192,0.0,0.0,91,-99.99,,,-99.99,,2013-04-30 00:51:00,
2013-04-29 21:02:00,60.0,57.0,29.99,SSW,192,0.0,0.0,91,-99.99,,,-99.99,,2013-04-30 01:02:00,
2013-04-29 21:11:00,60.0,57.0,29.99,SSW,192,0.0,0.0,91,-99.99,,,-99.99,,2013-04-30 01:11:00,
2013-04-29 21:22:00,60.0,58.0,30.00,SSW,193,0.0,0.0,92,-99.99,,,-99.99,,2013-04-30 01:22:00,
2013-04-29 21:32:00,60.0,58.0,30.00,SSW,193,0.0,0.0,93,-99.99,,,-99.99,,2013-04-30 01:32:00,
2013-04-29 21:41:00,60.0,58.0,30.00,SSW,193,0.0,0.0,93,-99.99,,,-99.99,,2013-04-30 01:41:00,
2013-04-29 21:52:00,59.0,57.0,30.01,SSW,193,0.0,0.0,94,-99.99,,,-99.99,,2013-04-30 01:52:00,
2013-04-29 22:01:00,59.0,57.0,30.01,SSW,193,0.0,0.0,94,-99.99,,,-99.99,,2013-04-30 02:01:00,
2013-04-29 22:11:00,59.0,57.0,30.01,SSW,193,0.0,0.0,94,-99.99,,,-99.99,,2013-04-30 02:11:00,
2013-04-29 22:21:00,59.0,58.0,30.01,SSW,193,0.0,0.0,95,-99.99,,,-99.99,,2013-04-30 02:21:00,
2013-04-29 22:31:00,59.0,58.0,30.01,SSW,193,0.0,0.0,95,-99.99,,,-99.99,,2013-04-30 02:31:00,
2013-04-29 22:42:00,59.0,58.0,30.01,SSW,193,0.0,0.0,95,-99.99,,,-99.99,,2013-04-30 02:42:00,
2013-04-29 22:52:00,58.0,57.0,30.01,SSW,193,0.0,0.0,96,-99.99,,,-99.99,,2013-04-30 02:52:00,
2013-04-29 23:01:00,58.0,57.0,30.02,SSW,193,0.0,0.0,96,-99.99,,,-99.99,,2013-04-30 03:01:00,
2013-04-29 23:11:00,58.0,57.0,30.02,SSW,193,0.0,0.0,96,-99.99,,,-99.99,,2013-04-30 03:11:00,
2013-04-29 23:21:00,57.0,56.0,30.02,SSW,193,0.0,0.0,96,-99.99,,,-99.99,,2013-04-30 03:21:00,
2013-04-29 23:33:00,57.0,56.0,30.02,SSW,193,0.0,0.0,97,-99.99,,,-99.99,,2013-04-30 03:33:00,
2013-04-29 23:43:00,57.0,56.0,30.02,SSW,193,0.0,0.0,97,-99.99,,,-99.99,,2013-04-30 03:43:00,
2013-04-29 23:52:00,57.0,56.0,30.02,SSW,193,0.0,0.0,97,-99.99,,,-99.99,,2013-04-30 03:52:00,